sensor_id;sensor_type;location;lat;lon;timestamp;P1;durP1;ratioP1;P2;durP2;ratioP2
51382;SDS011;37475;43.358;1.248;2023-06-22T00:02:16;13.38;;;5.65;;
51382;SDS011;37475;43.358;1.248;2023-06-22T00:04:43;16.27;;;5.47;;
51382;SDS011;37475;43.358;1.248;2023-06-22T00:07:09;18.80;;;5.90;;
51382;SDS011;37475;43.358;1.248;2023-06-22T00:09:35;24.52;;;5.88;;
51382;SDS011;37475;43.358;1.248;2023-06-22T00:12:01;16.02;;;5.70;;
51382;SDS011;37475;43.358;1.248;2023-06-22T00:14:28;11.98;;;5.30;;
51382;SDS011;37475;43.358;1.248;2023-06-22T00:16:54;9.80;;;5.13;;
51382;SDS011;37475;43.358;1.248;2023-06-22T00:19:22;11.07;;;5.35;;
51382;SDS011;37475;43.358;1.248;2023-06-22T00:21:48;11.98;;;5.88;;
51382;SDS011;37475;43.358;1.248;2023-06-22T00:24:21;16.00;;;5.78;;
51382;SDS011;37475;43.358;1.248;2023-06-22T00:26:50;14.13;;;6.25;;
51382;SDS011;37475;43.358;1.248;2023-06-22T00:29:16;17.48;;;6.60;;
51382;SDS011;37475;43.358;1.248;2023-06-22T00:31:43;13.88;;;5.82;;
51382;SDS011;37475;43.358;1.248;2023-06-22T00:34:09;16.42;;;5.78;;
51382;SDS011;37475;43.358;1.248;2023-06-22T00:36:35;13.93;;;6.10;;
51382;SDS011;37475;43.358;1.248;2023-06-22T00:39:01;9.30;;;3.78;;
51382;SDS011;37475;43.358;1.248;2023-06-22T00:41:27;11.18;;;3.50;;
51382;SDS011;37475;43.358;1.248;2023-06-22T00:43:53;9.45;;;3.40;;
51382;SDS011;37475;43.358;1.248;2023-06-22T00:46:20;9.82;;;3.20;;
51382;SDS011;37475;43.358;1.248;2023-06-22T00:48:47;6.78;;;2.70;;
51382;SDS011;37475;43.358;1.248;2023-06-22T00:51:14;8.75;;;2.80;;
51382;SDS011;37475;43.358;1.248;2023-06-22T00:53:40;6.80;;;2.50;;
51382;SDS011;37475;43.358;1.248;2023-06-22T00:56:08;4.65;;;2.55;;
51382;SDS011;37475;43.358;1.248;2023-06-22T00:58:35;10.68;;;2.75;;
51382;SDS011;37475;43.358;1.248;2023-06-22T01:01:01;5.93;;;2.20;;
51382;SDS011;37475;43.358;1.248;2023-06-22T01:03:27;6.72;;;2.30;;
51382;SDS011;37475;43.358;1.248;2023-06-22T01:05:54;6.47;;;2.70;;
51382;SDS011;37475;43.358;1.248;2023-06-22T01:11:29;6.55;;;2.38;;
51382;SDS011;37475;43.358;1.248;2023-06-22T01:14:22;8.65;;;2.20;;
51382;SDS011;37475;43.358;1.248;2023-06-22T01:16:53;7.50;;;2.60;;
51382;SDS011;37475;43.358;1.248;2023-06-22T01:22:15;10.00;;;2.50;;
51382;SDS011;37475;43.358;1.248;2023-06-22T01:24:58;9.88;;;2.30;;
51382;SDS011;37475;43.358;1.248;2023-06-22T01:30:40;5.40;;;2.28;;
51382;SDS011;37475;43.358;1.248;2023-06-22T01:33:10;7.63;;;2.30;;
51382;SDS011;37475;43.358;1.248;2023-06-22T01:35:37;6.40;;;1.95;;
51382;SDS011;37475;43.358;1.248;2023-06-22T01:38:04;9.23;;;2.30;;
51382;SDS011;37475;43.358;1.248;2023-06-22T01:40:31;5.22;;;2.10;;
51382;SDS011;37475;43.358;1.248;2023-06-22T01:43:02;7.60;;;2.20;;
51382;SDS011;37475;43.358;1.248;2023-06-22T01:45:29;13.02;;;2.78;;
51382;SDS011;37475;43.358;1.248;2023-06-22T01:47:55;6.57;;;2.20;;
51382;SDS011;37475;43.358;1.248;2023-06-22T01:50:22;8.23;;;2.30;;
51382;SDS011;37475;43.358;1.248;2023-06-22T01:52:47;6.72;;;2.08;;
51382;SDS011;37475;43.358;1.248;2023-06-22T01:55:13;6.82;;;2.05;;
51382;SDS011;37475;43.358;1.248;2023-06-22T01:57:39;7.18;;;2.50;;
51382;SDS011;37475;43.358;1.248;2023-06-22T02:00:12;5.97;;;2.42;;
51382;SDS011;37475;43.358;1.248;2023-06-22T02:03:21;7.88;;;2.60;;
51382;SDS011;37475;43.358;1.248;2023-06-22T02:05:52;5.57;;;2.33;;
51382;SDS011;37475;43.358;1.248;2023-06-22T02:08:28;5.00;;;2.42;;
51382;SDS011;37475;43.358;1.248;2023-06-22T02:11:17;10.70;;;2.65;;
51382;SDS011;37475;43.358;1.248;2023-06-22T02:13:45;12.80;;;2.83;;
51382;SDS011;37475;43.358;1.248;2023-06-22T02:16:11;10.43;;;3.13;;
51382;SDS011;37475;43.358;1.248;2023-06-22T02:18:38;11.93;;;2.85;;
51382;SDS011;37475;43.358;1.248;2023-06-22T02:21:05;6.65;;;3.03;;
51382;SDS011;37475;43.358;1.248;2023-06-22T02:23:32;8.27;;;2.88;;
51382;SDS011;37475;43.358;1.248;2023-06-22T02:26:01;6.80;;;3.15;;
51382;SDS011;37475;43.358;1.248;2023-06-22T02:28:28;8.23;;;3.30;;
51382;SDS011;37475;43.358;1.248;2023-06-22T02:30:54;8.95;;;3.50;;
51382;SDS011;37475;43.358;1.248;2023-06-22T02:33:20;7.25;;;3.13;;
51382;SDS011;37475;43.358;1.248;2023-06-22T02:35:46;7.70;;;3.20;;
51382;SDS011;37475;43.358;1.248;2023-06-22T02:38:14;8.32;;;3.60;;
51382;SDS011;37475;43.358;1.248;2023-06-22T02:40:40;8.60;;;3.65;;
51382;SDS011;37475;43.358;1.248;2023-06-22T02:43:06;9.30;;;3.35;;
51382;SDS011;37475;43.358;1.248;2023-06-22T02:45:32;11.63;;;3.30;;
51382;SDS011;37475;43.358;1.248;2023-06-22T02:47:57;7.97;;;3.38;;
51382;SDS011;37475;43.358;1.248;2023-06-22T02:50:23;7.72;;;3.10;;
51382;SDS011;37475;43.358;1.248;2023-06-22T02:52:49;6.22;;;3.08;;
51382;SDS011;37475;43.358;1.248;2023-06-22T02:55:15;8.05;;;3.10;;
51382;SDS011;37475;43.358;1.248;2023-06-22T02:57:41;7.53;;;3.00;;
51382;SDS011;37475;43.358;1.248;2023-06-22T03:00:08;9.50;;;3.30;;
51382;SDS011;37475;43.358;1.248;2023-06-22T03:02:45;8.20;;;3.53;;
51382;SDS011;37475;43.358;1.248;2023-06-22T03:05:12;9.52;;;3.50;;
51382;SDS011;37475;43.358;1.248;2023-06-22T03:07:46;6.40;;;3.30;;
51382;SDS011;37475;43.358;1.248;2023-06-22T03:10:12;12.10;;;3.65;;
51382;SDS011;37475;43.358;1.248;2023-06-22T03:12:40;11.93;;;3.15;;
51382;SDS011;37475;43.358;1.248;2023-06-22T03:15:08;7.05;;;3.58;;
51382;SDS011;37475;43.358;1.248;2023-06-22T03:17:36;7.18;;;3.08;;
51382;SDS011;37475;43.358;1.248;2023-06-22T03:20:05;12.52;;;3.63;;
51382;SDS011;37475;43.358;1.248;2023-06-22T03:22:36;6.78;;;3.20;;
51382;SDS011;37475;43.358;1.248;2023-06-22T03:25:06;9.05;;;3.40;;
51382;SDS011;37475;43.358;1.248;2023-06-22T03:27:38;9.07;;;3.05;;
51382;SDS011;37475;43.358;1.248;2023-06-22T03:30:09;7.22;;;3.25;;
51382;SDS011;37475;43.358;1.248;2023-06-22T03:32:37;8.93;;;3.30;;
51382;SDS011;37475;43.358;1.248;2023-06-22T03:35:03;7.07;;;3.65;;
51382;SDS011;37475;43.358;1.248;2023-06-22T03:37:31;8.50;;;3.30;;
51382;SDS011;37475;43.358;1.248;2023-06-22T03:39:57;11.20;;;3.75;;
51382;SDS011;37475;43.358;1.248;2023-06-22T03:42:22;9.90;;;3.60;;
51382;SDS011;37475;43.358;1.248;2023-06-22T03:44:48;7.38;;;3.17;;
51382;SDS011;37475;43.358;1.248;2023-06-22T03:47:14;8.75;;;3.13;;
51382;SDS011;37475;43.358;1.248;2023-06-22T03:49:40;10.27;;;3.10;;
51382;SDS011;37475;43.358;1.248;2023-06-22T03:52:06;5.30;;;2.90;;
51382;SDS011;37475;43.358;1.248;2023-06-22T03:54:32;10.73;;;3.28;;
51382;SDS011;37475;43.358;1.248;2023-06-22T03:56:58;8.70;;;3.40;;
51382;SDS011;37475;43.358;1.248;2023-06-22T03:59:24;8.48;;;3.67;;
51382;SDS011;37475;43.358;1.248;2023-06-22T04:01:50;8.40;;;4.00;;
51382;SDS011;37475;43.358;1.248;2023-06-22T04:04:19;10.85;;;4.38;;
51382;SDS011;37475;43.358;1.248;2023-06-22T04:06:45;9.35;;;4.68;;
51382;SDS011;37475;43.358;1.248;2023-06-22T04:09:12;9.80;;;5.20;;
51382;SDS011;37475;43.358;1.248;2023-06-22T04:11:38;12.18;;;5.35;;
51382;SDS011;37475;43.358;1.248;2023-06-22T04:14:03;10.05;;;5.30;;
51382;SDS011;37475;43.358;1.248;2023-06-22T04:16:29;10.70;;;5.22;;
51382;SDS011;37475;43.358;1.248;2023-06-22T04:18:55;13.30;;;5.68;;
51382;SDS011;37475;43.358;1.248;2023-06-22T04:21:21;11.55;;;5.47;;
51382;SDS011;37475;43.358;1.248;2023-06-22T04:23:46;11.77;;;4.65;;
51382;SDS011;37475;43.358;1.248;2023-06-22T04:26:13;12.38;;;5.22;;
51382;SDS011;37475;43.358;1.248;2023-06-22T04:28:40;12.13;;;6.05;;
51382;SDS011;37475;43.358;1.248;2023-06-22T04:31:06;13.20;;;6.10;;
51382;SDS011;37475;43.358;1.248;2023-06-22T04:33:32;9.60;;;5.95;;
51382;SDS011;37475;43.358;1.248;2023-06-22T04:35:58;13.63;;;5.88;;
51382;SDS011;37475;43.358;1.248;2023-06-22T04:38:28;11.55;;;5.93;;
51382;SDS011;37475;43.358;1.248;2023-06-22T04:40:58;9.57;;;5.85;;
51382;SDS011;37475;43.358;1.248;2023-06-22T04:43:26;12.10;;;5.80;;
51382;SDS011;37475;43.358;1.248;2023-06-22T04:45:55;10.70;;;6.35;;
51382;SDS011;37475;43.358;1.248;2023-06-22T04:48:28;13.25;;;6.13;;
51382;SDS011;37475;43.358;1.248;2023-06-22T04:50:58;13.45;;;5.82;;
51382;SDS011;37475;43.358;1.248;2023-06-22T04:53:28;9.40;;;5.95;;
51382;SDS011;37475;43.358;1.248;2023-06-22T04:55:55;11.02;;;6.45;;
51382;SDS011;37475;43.358;1.248;2023-06-22T04:58:21;12.65;;;6.38;;
51382;SDS011;37475;43.358;1.248;2023-06-22T05:00:47;11.65;;;6.10;;
51382;SDS011;37475;43.358;1.248;2023-06-22T05:03:16;14.52;;;6.53;;
51382;SDS011;37475;43.358;1.248;2023-06-22T05:05:43;21.73;;;6.70;;
51382;SDS011;37475;43.358;1.248;2023-06-22T05:08:09;15.48;;;6.80;;
51382;SDS011;37475;43.358;1.248;2023-06-22T05:10:35;11.35;;;6.55;;
51382;SDS011;37475;43.358;1.248;2023-06-22T05:13:01;14.13;;;6.55;;
51382;SDS011;37475;43.358;1.248;2023-06-22T05:15:27;14.38;;;6.80;;
51382;SDS011;37475;43.358;1.248;2023-06-22T05:17:55;12.35;;;6.82;;
51382;SDS011;37475;43.358;1.248;2023-06-22T05:20:21;13.10;;;6.90;;
51382;SDS011;37475;43.358;1.248;2023-06-22T05:22:47;16.40;;;6.68;;
51382;SDS011;37475;43.358;1.248;2023-06-22T05:25:13;16.67;;;7.18;;
51382;SDS011;37475;43.358;1.248;2023-06-22T05:27:39;16.63;;;6.78;;
51382;SDS011;37475;43.358;1.248;2023-06-22T05:30:08;14.00;;;6.68;;
51382;SDS011;37475;43.358;1.248;2023-06-22T05:32:35;13.40;;;6.68;;
51382;SDS011;37475;43.358;1.248;2023-06-22T05:35:02;16.55;;;7.55;;
51382;SDS011;37475;43.358;1.248;2023-06-22T05:37:28;10.43;;;6.70;;
51382;SDS011;37475;43.358;1.248;2023-06-22T05:39:55;12.85;;;6.95;;
51382;SDS011;37475;43.358;1.248;2023-06-22T05:42:22;17.65;;;6.80;;
51382;SDS011;37475;43.358;1.248;2023-06-22T05:44:48;13.30;;;6.75;;
51382;SDS011;37475;43.358;1.248;2023-06-22T05:47:14;12.63;;;6.47;;
51382;SDS011;37475;43.358;1.248;2023-06-22T05:49:39;14.80;;;6.90;;
51382;SDS011;37475;43.358;1.248;2023-06-22T05:52:05;10.57;;;6.47;;
51382;SDS011;37475;43.358;1.248;2023-06-22T05:54:31;13.88;;;6.70;;
51382;SDS011;37475;43.358;1.248;2023-06-22T05:56:58;14.20;;;6.30;;
51382;SDS011;37475;43.358;1.248;2023-06-22T05:59:24;11.07;;;6.32;;
51382;SDS011;37475;43.358;1.248;2023-06-22T06:01:49;11.75;;;6.57;;
51382;SDS011;37475;43.358;1.248;2023-06-22T06:04:16;11.75;;;6.53;;
51382;SDS011;37475;43.358;1.248;2023-06-22T06:06:43;10.57;;;5.95;;
51382;SDS011;37475;43.358;1.248;2023-06-22T06:09:10;11.25;;;5.70;;
51382;SDS011;37475;43.358;1.248;2023-06-22T06:11:36;12.45;;;6.40;;
51382;SDS011;37475;43.358;1.248;2023-06-22T06:14:03;12.10;;;5.68;;
51382;SDS011;37475;43.358;1.248;2023-06-22T06:16:29;9.80;;;5.40;;
51382;SDS011;37475;43.358;1.248;2023-06-22T06:18:54;13.00;;;5.70;;
51382;SDS011;37475;43.358;1.248;2023-06-22T06:21:21;10.30;;;5.03;;
51382;SDS011;37475;43.358;1.248;2023-06-22T06:23:47;9.35;;;4.80;;
51382;SDS011;37475;43.358;1.248;2023-06-22T06:26:13;8.52;;;4.80;;
51382;SDS011;37475;43.358;1.248;2023-06-22T06:28:41;8.15;;;4.57;;
51382;SDS011;37475;43.358;1.248;2023-06-22T06:31:08;13.70;;;4.65;;
51382;SDS011;37475;43.358;1.248;2023-06-22T06:33:34;9.23;;;3.85;;
51382;SDS011;37475;43.358;1.248;2023-06-22T06:36:01;9.43;;;4.40;;
51382;SDS011;37475;43.358;1.248;2023-06-22T06:38:29;6.32;;;3.53;;
51382;SDS011;37475;43.358;1.248;2023-06-22T06:40:56;8.98;;;4.13;;
51382;SDS011;37475;43.358;1.248;2023-06-22T06:43:22;8.30;;;4.55;;
51382;SDS011;37475;43.358;1.248;2023-06-22T06:45:48;10.60;;;4.25;;
51382;SDS011;37475;43.358;1.248;2023-06-22T06:48:14;9.85;;;3.78;;
51382;SDS011;37475;43.358;1.248;2023-06-22T06:50:40;12.52;;;4.05;;
51382;SDS011;37475;43.358;1.248;2023-06-22T06:53:06;6.13;;;3.08;;
51382;SDS011;37475;43.358;1.248;2023-06-22T06:55:32;7.07;;;3.65;;
51382;SDS011;37475;43.358;1.248;2023-06-22T06:58:00;5.53;;;3.00;;
51382;SDS011;37475;43.358;1.248;2023-06-22T07:00:27;8.45;;;3.42;;
51382;SDS011;37475;43.358;1.248;2023-06-22T07:02:53;7.05;;;3.60;;
51382;SDS011;37475;43.358;1.248;2023-06-22T07:05:19;5.75;;;2.70;;
51382;SDS011;37475;43.358;1.248;2023-06-22T07:07:45;5.78;;;2.95;;
51382;SDS011;37475;43.358;1.248;2023-06-22T07:10:11;7.53;;;2.72;;
51382;SDS011;37475;43.358;1.248;2023-06-22T07:12:37;4.97;;;2.60;;
51382;SDS011;37475;43.358;1.248;2023-06-22T07:15:06;5.47;;;2.55;;
51382;SDS011;37475;43.358;1.248;2023-06-22T07:17:34;7.63;;;2.08;;
51382;SDS011;37475;43.358;1.248;2023-06-22T07:20:03;4.80;;;2.17;;
51382;SDS011;37475;43.358;1.248;2023-06-22T07:22:41;7.55;;;2.72;;
51382;SDS011;37475;43.358;1.248;2023-06-22T07:25:09;6.43;;;2.47;;
51382;SDS011;37475;43.358;1.248;2023-06-22T07:27:39;3.75;;;2.40;;
51382;SDS011;37475;43.358;1.248;2023-06-22T07:30:11;4.00;;;2.53;;
51382;SDS011;37475;43.358;1.248;2023-06-22T07:32:38;4.15;;;2.50;;
51382;SDS011;37475;43.358;1.248;2023-06-22T07:35:04;4.93;;;2.63;;
51382;SDS011;37475;43.358;1.248;2023-06-22T07:37:31;5.68;;;2.72;;
51382;SDS011;37475;43.358;1.248;2023-06-22T07:39:58;4.22;;;2.60;;
51382;SDS011;37475;43.358;1.248;2023-06-22T07:42:25;7.35;;;2.65;;
51382;SDS011;37475;43.358;1.248;2023-06-22T07:44:52;6.30;;;2.40;;
51382;SDS011;37475;43.358;1.248;2023-06-22T07:47:19;6.05;;;2.47;;
51382;SDS011;37475;43.358;1.248;2023-06-22T07:49:50;4.82;;;2.30;;
51382;SDS011;37475;43.358;1.248;2023-06-22T07:52:15;6.07;;;2.47;;
51382;SDS011;37475;43.358;1.248;2023-06-22T07:54:41;5.00;;;2.50;;
51382;SDS011;37475;43.358;1.248;2023-06-22T07:57:07;4.68;;;2.25;;
51382;SDS011;37475;43.358;1.248;2023-06-22T07:59:33;3.40;;;1.88;;
51382;SDS011;37475;43.358;1.248;2023-06-22T08:01:58;5.78;;;2.47;;
51382;SDS011;37475;43.358;1.248;2023-06-22T08:04:24;8.95;;;2.42;;
51382;SDS011;37475;43.358;1.248;2023-06-22T08:06:52;4.30;;;2.45;;
51382;SDS011;37475;43.358;1.248;2023-06-22T08:09:19;3.90;;;2.10;;
51382;SDS011;37475;43.358;1.248;2023-06-22T08:11:44;5.47;;;2.47;;
51382;SDS011;37475;43.358;1.248;2023-06-22T08:14:10;4.13;;;2.67;;
51382;SDS011;37475;43.358;1.248;2023-06-22T08:16:36;6.32;;;2.50;;
51382;SDS011;37475;43.358;1.248;2023-06-22T08:19:02;4.90;;;2.30;;
51382;SDS011;37475;43.358;1.248;2023-06-22T08:21:27;3.50;;;1.98;;
51382;SDS011;37475;43.358;1.248;2023-06-22T08:23:53;5.18;;;2.47;;
51382;SDS011;37475;43.358;1.248;2023-06-22T08:26:19;4.60;;;2.25;;
51382;SDS011;37475;43.358;1.248;2023-06-22T08:28:45;5.05;;;2.67;;
51382;SDS011;37475;43.358;1.248;2023-06-22T08:31:11;4.43;;;2.33;;
51382;SDS011;37475;43.358;1.248;2023-06-22T08:33:38;5.00;;;2.35;;
51382;SDS011;37475;43.358;1.248;2023-06-22T08:36:05;5.45;;;2.28;;
51382;SDS011;37475;43.358;1.248;2023-06-22T08:38:33;5.72;;;2.83;;
51382;SDS011;37475;43.358;1.248;2023-06-22T08:40:59;5.20;;;2.30;;
51382;SDS011;37475;43.358;1.248;2023-06-22T08:43:25;5.95;;;2.60;;
51382;SDS011;37475;43.358;1.248;2023-06-22T08:45:51;4.28;;;2.70;;
51382;SDS011;37475;43.358;1.248;2023-06-22T08:48:17;7.80;;;2.80;;
51382;SDS011;37475;43.358;1.248;2023-06-22T08:50:43;5.70;;;2.60;;
51382;SDS011;37475;43.358;1.248;2023-06-22T08:53:08;4.13;;;2.80;;
51382;SDS011;37475;43.358;1.248;2023-06-22T08:55:34;5.45;;;2.85;;
51382;SDS011;37475;43.358;1.248;2023-06-22T08:58:00;4.93;;;2.88;;
51382;SDS011;37475;43.358;1.248;2023-06-22T09:00:26;5.00;;;2.90;;
51382;SDS011;37475;43.358;1.248;2023-06-22T09:02:54;4.93;;;3.10;;
51382;SDS011;37475;43.358;1.248;2023-06-22T09:05:24;6.70;;;3.40;;
51382;SDS011;37475;43.358;1.248;2023-06-22T09:07:52;4.65;;;3.20;;
51382;SDS011;37475;43.358;1.248;2023-06-22T09:10:21;6.38;;;3.30;;
51382;SDS011;37475;43.358;1.248;2023-06-22T09:12:47;5.25;;;3.08;;
51382;SDS011;37475;43.358;1.248;2023-06-22T09:15:12;5.15;;;3.35;;
51382;SDS011;37475;43.358;1.248;2023-06-22T09:17:40;6.40;;;3.45;;
51382;SDS011;37475;43.358;1.248;2023-06-22T09:20:06;5.80;;;2.92;;
51382;SDS011;37475;43.358;1.248;2023-06-22T09:22:35;5.22;;;3.10;;
51382;SDS011;37475;43.358;1.248;2023-06-22T09:25:01;5.90;;;3.15;;
51382;SDS011;37475;43.358;1.248;2023-06-22T09:27:28;5.57;;;2.92;;
51382;SDS011;37475;43.358;1.248;2023-06-22T09:29:54;5.65;;;3.17;;
51382;SDS011;37475;43.358;1.248;2023-06-22T09:32:20;5.65;;;3.47;;
51382;SDS011;37475;43.358;1.248;2023-06-22T09:34:46;5.25;;;3.08;;
51382;SDS011;37475;43.358;1.248;2023-06-22T09:37:12;6.25;;;3.17;;
51382;SDS011;37475;43.358;1.248;2023-06-22T09:39:38;6.13;;;3.17;;
51382;SDS011;37475;43.358;1.248;2023-06-22T09:42:04;7.90;;;3.20;;
51382;SDS011;37475;43.358;1.248;2023-06-22T09:44:31;7.28;;;3.20;;
51382;SDS011;37475;43.358;1.248;2023-06-22T09:46:57;6.47;;;3.42;;
51382;SDS011;37475;43.358;1.248;2023-06-22T09:49:22;4.57;;;3.10;;
51382;SDS011;37475;43.358;1.248;2023-06-22T09:51:48;6.55;;;3.17;;
51382;SDS011;37475;43.358;1.248;2023-06-22T09:54:16;4.53;;;2.85;;
51382;SDS011;37475;43.358;1.248;2023-06-22T09:56:41;5.70;;;3.28;;
51382;SDS011;37475;43.358;1.248;2023-06-22T09:59:07;5.50;;;3.00;;
51382;SDS011;37475;43.358;1.248;2023-06-22T10:01:33;7.60;;;3.53;;
51382;SDS011;37475;43.358;1.248;2023-06-22T10:03:59;6.53;;;2.97;;
51382;SDS011;37475;43.358;1.248;2023-06-22T10:06:24;4.78;;;3.10;;
51382;SDS011;37475;43.358;1.248;2023-06-22T10:08:51;6.10;;;2.78;;
51382;SDS011;37475;43.358;1.248;2023-06-22T10:11:17;4.75;;;2.70;;
51382;SDS011;37475;43.358;1.248;2023-06-22T10:13:42;6.82;;;2.78;;
51382;SDS011;37475;43.358;1.248;2023-06-22T10:16:08;7.28;;;2.85;;
51382;SDS011;37475;43.358;1.248;2023-06-22T10:18:34;5.35;;;2.53;;
51382;SDS011;37475;43.358;1.248;2023-06-22T10:21:00;6.22;;;2.53;;
51382;SDS011;37475;43.358;1.248;2023-06-22T10:23:26;4.40;;;2.40;;
51382;SDS011;37475;43.358;1.248;2023-06-22T10:25:52;5.40;;;2.60;;
51382;SDS011;37475;43.358;1.248;2023-06-22T10:28:18;4.30;;;2.40;;
51382;SDS011;37475;43.358;1.248;2023-06-22T10:30:44;5.40;;;2.72;;
51382;SDS011;37475;43.358;1.248;2023-06-22T10:33:10;6.00;;;2.47;;
51382;SDS011;37475;43.358;1.248;2023-06-22T10:35:37;6.00;;;2.58;;
51382;SDS011;37475;43.358;1.248;2023-06-22T10:38:04;4.93;;;2.80;;
51382;SDS011;37475;43.358;1.248;2023-06-22T10:40:30;4.97;;;2.45;;
51382;SDS011;37475;43.358;1.248;2023-06-22T10:42:57;7.72;;;2.60;;
51382;SDS011;37475;43.358;1.248;2023-06-22T10:45:23;6.47;;;2.72;;
51382;SDS011;37475;43.358;1.248;2023-06-22T10:47:49;5.65;;;2.80;;
51382;SDS011;37475;43.358;1.248;2023-06-22T10:50:15;6.35;;;3.03;;
51382;SDS011;37475;43.358;1.248;2023-06-22T10:52:41;5.72;;;2.60;;
51382;SDS011;37475;43.358;1.248;2023-06-22T10:55:07;8.98;;;2.50;;
51382;SDS011;37475;43.358;1.248;2023-06-22T10:57:34;4.25;;;2.75;;
51382;SDS011;37475;43.358;1.248;2023-06-22T11:00:01;4.05;;;2.30;;
51382;SDS011;37475;43.358;1.248;2023-06-22T11:02:30;5.13;;;2.10;;
51382;SDS011;37475;43.358;1.248;2023-06-22T11:04:56;4.53;;;2.45;;
51382;SDS011;37475;43.358;1.248;2023-06-22T11:07:25;5.10;;;2.70;;
51382;SDS011;37475;43.358;1.248;2023-06-22T11:09:53;4.80;;;2.50;;
51382;SDS011;37475;43.358;1.248;2023-06-22T11:12:19;3.92;;;2.30;;
51382;SDS011;37475;43.358;1.248;2023-06-22T11:14:45;4.80;;;2.60;;
51382;SDS011;37475;43.358;1.248;2023-06-22T11:17:11;5.15;;;2.58;;
51382;SDS011;37475;43.358;1.248;2023-06-22T11:19:37;5.13;;;2.30;;
51382;SDS011;37475;43.358;1.248;2023-06-22T11:22:03;5.25;;;2.47;;
51382;SDS011;37475;43.358;1.248;2023-06-22T11:24:29;5.68;;;2.60;;
51382;SDS011;37475;43.358;1.248;2023-06-22T11:26:54;4.45;;;2.40;;
51382;SDS011;37475;43.358;1.248;2023-06-22T11:29:20;5.93;;;2.58;;
51382;SDS011;37475;43.358;1.248;2023-06-22T11:31:46;6.00;;;2.70;;
51382;SDS011;37475;43.358;1.248;2023-06-22T11:34:12;4.63;;;2.60;;
51382;SDS011;37475;43.358;1.248;2023-06-22T11:36:38;4.55;;;2.50;;
51382;SDS011;37475;43.358;1.248;2023-06-22T11:39:04;4.43;;;2.50;;
51382;SDS011;37475;43.358;1.248;2023-06-22T11:41:30;5.63;;;2.67;;
51382;SDS011;37475;43.358;1.248;2023-06-22T11:43:56;7.90;;;2.50;;
51382;SDS011;37475;43.358;1.248;2023-06-22T11:46:22;6.80;;;2.60;;
51382;SDS011;37475;43.358;1.248;2023-06-22T11:48:48;4.18;;;2.38;;
51382;SDS011;37475;43.358;1.248;2023-06-22T11:51:14;4.60;;;2.70;;
51382;SDS011;37475;43.358;1.248;2023-06-22T11:53:40;5.45;;;2.50;;
51382;SDS011;37475;43.358;1.248;2023-06-22T11:56:06;5.57;;;2.83;;
51382;SDS011;37475;43.358;1.248;2023-06-22T11:58:32;6.95;;;3.20;;
51382;SDS011;37475;43.358;1.248;2023-06-22T12:00:57;5.18;;;2.90;;
51382;SDS011;37475;43.358;1.248;2023-06-22T12:03:23;4.07;;;2.55;;
51382;SDS011;37475;43.358;1.248;2023-06-22T12:05:50;5.30;;;2.75;;
51382;SDS011;37475;43.358;1.248;2023-06-22T12:08:19;6.07;;;2.40;;
51382;SDS011;37475;43.358;1.248;2023-06-22T12:10:45;5.55;;;2.40;;
51382;SDS011;37475;43.358;1.248;2023-06-22T12:13:11;6.43;;;2.72;;
51382;SDS011;37475;43.358;1.248;2023-06-22T12:15:37;6.45;;;2.67;;
51382;SDS011;37475;43.358;1.248;2023-06-22T12:18:02;9.70;;;2.83;;
51382;SDS011;37475;43.358;1.248;2023-06-22T12:20:28;7.55;;;2.53;;
51382;SDS011;37475;43.358;1.248;2023-06-22T12:22:54;10.70;;;3.17;;
51382;SDS011;37475;43.358;1.248;2023-06-22T12:25:21;6.93;;;3.08;;
51382;SDS011;37475;43.358;1.248;2023-06-22T12:27:47;6.53;;;3.50;;
51382;SDS011;37475;43.358;1.248;2023-06-22T12:30:15;8.07;;;3.67;;
51382;SDS011;37475;43.358;1.248;2023-06-22T12:32:41;7.95;;;4.00;;
51382;SDS011;37475;43.358;1.248;2023-06-22T12:35:07;8.80;;;3.92;;
51382;SDS011;37475;43.358;1.248;2023-06-22T12:37:38;7.47;;;4.10;;
51382;SDS011;37475;43.358;1.248;2023-06-22T12:40:08;8.35;;;3.42;;
51382;SDS011;37475;43.358;1.248;2023-06-22T12:42:35;10.73;;;3.78;;
51382;SDS011;37475;43.358;1.248;2023-06-22T12:45:01;9.80;;;3.92;;
51382;SDS011;37475;43.358;1.248;2023-06-22T12:47:26;9.07;;;4.00;;
51382;SDS011;37475;43.358;1.248;2023-06-22T12:49:52;6.90;;;3.75;;
51382;SDS011;37475;43.358;1.248;2023-06-22T12:52:18;8.82;;;4.25;;
51382;SDS011;37475;43.358;1.248;2023-06-22T12:54:44;7.38;;;3.70;;
51382;SDS011;37475;43.358;1.248;2023-06-22T12:57:10;6.13;;;3.20;;
51382;SDS011;37475;43.358;1.248;2023-06-22T12:59:35;5.35;;;3.42;;
51382;SDS011;37475;43.358;1.248;2023-06-22T13:02:01;5.13;;;3.22;;
51382;SDS011;37475;43.358;1.248;2023-06-22T13:04:27;5.78;;;3.00;;
51382;SDS011;37475;43.358;1.248;2023-06-22T13:06:53;6.43;;;3.60;;
51382;SDS011;37475;43.358;1.248;2023-06-22T13:09:18;5.82;;;3.55;;
51382;SDS011;37475;43.358;1.248;2023-06-22T13:11:45;7.03;;;3.45;;
51382;SDS011;37475;43.358;1.248;2023-06-22T13:14:10;7.35;;;3.75;;
51382;SDS011;37475;43.358;1.248;2023-06-22T13:16:36;8.38;;;4.22;;
51382;SDS011;37475;43.358;1.248;2023-06-22T13:19:02;7.90;;;4.25;;
51382;SDS011;37475;43.358;1.248;2023-06-22T13:21:28;10.40;;;4.70;;
51382;SDS011;37475;43.358;1.248;2023-06-22T13:23:55;7.32;;;4.13;;
51382;SDS011;37475;43.358;1.248;2023-06-22T13:26:21;7.97;;;3.75;;
51382;SDS011;37475;43.358;1.248;2023-06-22T13:28:47;5.97;;;3.83;;
51382;SDS011;37475;43.358;1.248;2023-06-22T13:31:13;9.98;;;4.00;;
51382;SDS011;37475;43.358;1.248;2023-06-22T13:33:38;8.93;;;4.07;;
51382;SDS011;37475;43.358;1.248;2023-06-22T13:36:05;8.18;;;3.40;;
51382;SDS011;37475;43.358;1.248;2023-06-22T13:38:34;6.90;;;4.07;;
51382;SDS011;37475;43.358;1.248;2023-06-22T13:41:03;8.20;;;3.80;;
51382;SDS011;37475;43.358;1.248;2023-06-22T13:43:30;6.88;;;3.42;;
51382;SDS011;37475;43.358;1.248;2023-06-22T13:45:56;7.18;;;3.60;;
51382;SDS011;37475;43.358;1.248;2023-06-22T13:48:22;6.32;;;3.15;;
51382;SDS011;37475;43.358;1.248;2023-06-22T13:50:50;5.88;;;2.65;;
51382;SDS011;37475;43.358;1.248;2023-06-22T13:53:17;5.30;;;3.22;;
51382;SDS011;37475;43.358;1.248;2023-06-22T13:55:43;7.60;;;3.75;;
51382;SDS011;37475;43.358;1.248;2023-06-22T13:58:09;5.65;;;3.22;;
51382;SDS011;37475;43.358;1.248;2023-06-22T14:00:35;8.93;;;3.65;;
51382;SDS011;37475;43.358;1.248;2023-06-22T14:03:00;7.97;;;3.90;;
51382;SDS011;37475;43.358;1.248;2023-06-22T14:05:26;6.90;;;3.40;;
51382;SDS011;37475;43.358;1.248;2023-06-22T14:07:52;7.57;;;3.33;;
51382;SDS011;37475;43.358;1.248;2023-06-22T14:10:18;6.30;;;3.38;;
51382;SDS011;37475;43.358;1.248;2023-06-22T14:12:43;6.70;;;3.50;;
51382;SDS011;37475;43.358;1.248;2023-06-22T14:15:10;5.63;;;2.90;;
51382;SDS011;37475;43.358;1.248;2023-06-22T14:17:36;7.20;;;3.03;;
51382;SDS011;37475;43.358;1.248;2023-06-22T14:20:02;6.75;;;2.90;;
51382;SDS011;37475;43.358;1.248;2023-06-22T14:22:30;6.63;;;3.30;;
51382;SDS011;37475;43.358;1.248;2023-06-22T14:24:56;5.93;;;3.25;;
51382;SDS011;37475;43.358;1.248;2023-06-22T14:27:23;6.28;;;3.28;;
51382;SDS011;37475;43.358;1.248;2023-06-22T14:29:49;10.25;;;3.67;;
51382;SDS011;37475;43.358;1.248;2023-06-22T14:32:15;6.07;;;2.92;;
51382;SDS011;37475;43.358;1.248;2023-06-22T14:34:40;8.80;;;3.42;;
51382;SDS011;37475;43.358;1.248;2023-06-22T14:37:07;6.47;;;3.17;;
51382;SDS011;37475;43.358;1.248;2023-06-22T14:39:34;4.90;;;2.85;;
51382;SDS011;37475;43.358;1.248;2023-06-22T14:42:00;8.70;;;3.22;;
51382;SDS011;37475;43.358;1.248;2023-06-22T14:44:28;5.13;;;2.78;;
51382;SDS011;37475;43.358;1.248;2023-06-22T14:46:55;6.22;;;3.00;;
51382;SDS011;37475;43.358;1.248;2023-06-22T14:49:21;6.03;;;2.85;;
51382;SDS011;37475;43.358;1.248;2023-06-22T14:51:47;4.80;;;2.50;;
51382;SDS011;37475;43.358;1.248;2023-06-22T14:54:13;6.80;;;2.97;;